Latest Weather Observations for Alva Beach

IDQ60801

Issued at 1:32 pm EST Tuesday 30 May 2017 (issued every 30 minutes, with the page automatically refreshed every 10 minutes)

About weather observations | Map of weather stations | Latest weather observations for QLD | Other Formats
Station Details ID: 033295 Name: ALVA BEACH Lat: -19.46 Lon: 147.48 Height: 7.5 m
Data from the previous 72 hours. | See also: Recent months at Alva Beach
Date/Time
EST
Temp
°C
App
Temp
°C
Dew
Point
°C
Rel
Hum
%
Delta-T
°C
Wind Press
QNH
hPa
Press
MSL
hPa
Rain since
9am
mm
Dir  Spd
km/h
Gust
km/h
Spd
kts
Gust
kts
30/01:30pm 25.9 25.2 16.5 56 5.8 ESE 15 30 8 16 1018.0 1018.0 0.0
30/01:00pm 25.3 24.2 17.2 61 5.0 ESE 19 28 10 15 1018.2 1018.2 0.0
30/12:30pm 25.7 24.8 16.8 58 5.5 ESE 17 28 9 15 1018.5 1018.5 0.0
30/12:00pm 24.7 23.9 17.2 63 4.6 SE 17 24 9 13 1018.4 1018.4 0.0
30/11:30am 24.9 24.1 17.1 62 4.8 SE 17 26 9 14 1018.5 1018.5 0.0
30/11:00am 25.1 24.6 16.8 60 5.1 SE 15 24 8 13 1019.0 1019.0 0.0
30/10:30am 24.2 23.7 17.9 68 3.9 SE 17 24 9 13 1018.7 1018.7 0.0
30/10:00am 23.6 23.9 17.8 70 3.6 SE 13 22 7 12 1019.0 1019.0 0.0
30/09:30am 22.7 23.8 18.0 75 2.9 SSE 9 15 5 8 1018.9 1018.9 0.0
30/09:00am 21.9 23.3 17.7 77 2.6 S 7 11 4 6 1018.9 1018.9 0.2
30/08:30am 21.0 22.3 17.2 79 2.3 S 6 9 3 5 1018.6 1018.6 0.2
30/08:00am 19.6 20.5 17.6 88 1.2 S 9 13 5 7 1018.7 1018.7 0.2
30/07:30am 19.0 20.0 17.7 92 0.8 S 9 13 5 7 1018.5 1018.5 0.2
30/07:00am 18.6 19.4 17.3 92 0.8 S 9 11 5 6 1018.1 1018.1 0.2
30/06:30am 18.6 19.8 17.3 92 0.8 S 7 11 4 6 1017.7 1017.7 0.2
30/06:00am 18.4 19.7 17.1 92 0.8 S 6 9 3 5 1017.7 1017.7 0.2
30/05:30am 18.6 19.8 17.3 92 0.8 S 7 11 4 6 1017.7 1017.7 0.2
30/05:00am 18.7 19.5 17.4 92 0.8 S 9 13 5 7 1017.4 1017.4 0.2
30/04:30am 18.7 19.5 17.2 91 0.9 S 9 11 5 6 1017.3 1017.3 0.2
30/04:00am 18.9 19.7 17.2 90 1.0 SSE 9 13 5 7 1017.2 1017.2 0.2
30/03:30am 19.7 20.5 16.3 81 2.0 SSE 7 13 4 7 1017.5 1017.5 0.2
30/03:00am 20.7 21.6 16.5 77 2.5 SE 7 11 4 6 1017.3 1017.3 0.2
30/02:30am 22.1 22.3 16.8 72 3.2 ESE 11 20 6 11 1017.5 1017.5 0.2
30/02:00am 22.6 22.5 16.9 70 3.5 ESE 13 20 7 11 1017.7 1017.7 0.2
30/01:30am 22.6 22.7 17.5 73 3.2 ESE 13 22 7 12 1018.1 1018.1 0.2
30/01:00am 22.6 23.1 18.4 77 2.6 ESE 13 20 7 11 1018.0 1018.0 0.2
30/12:30am 22.5 22.4 17.8 75 2.9 ESE 15 24 8 13 1018.4 1018.4 0.2
30/12:00am 22.6 22.6 18.2 76 2.7 ESE 15 22 8 12 1018.4 1018.4 0.2
 
Date/Time
EST
Temp
°C
App
Temp
°C
Dew
Point
°C
Rel
Hum
%
Delta-T
°C
Wind Press
QNH
hPa
Press
MSL
hPa
Rain since
9am
mm
Dir  Spd
km/h
Gust
km/h
Spd
kts
Gust
kts
29/11:30pm 22.5 22.2 17.4 73 3.1 ESE 15 22 8 12 1018.5 1018.5 0.2
29/11:00pm 22.8 22.9 17.5 72 3.3 ESE 13 20 7 11 1018.7 1018.7 0.2
29/10:30pm 22.5 22.9 18.1 76 2.7 ESE 13 22 7 12 1018.9 1018.9 0.2
29/10:00pm 21.7 23.1 17.9 79 2.4 SE 7 15 4 8 1018.8 1018.8 0.2
29/09:30pm 21.1 23.4 19.4 90 1.1 SE 6 9 3 5 1018.5 1018.5 0.2
29/09:00pm 20.9 23.1 19.2 90 1.1 SE 6 7 3 4 1018.4 1018.4 0.2
29/08:30pm 21.2 23.0 18.4 84 1.7 SE 6 7 3 4 1018.3 1018.3 0.2
29/08:00pm 21.6 23.3 18.0 80 2.2 SE 6 7 3 4 1018.2 1018.2 0.2
29/07:30pm 22.8 24.2 18.6 77 2.6 SE 9 15 5 8 1018.2 1018.2 0.2
29/07:00pm 22.8 24.0 18.3 76 2.8 ESE 9 11 5 6 1017.4 1017.4 0.2
29/06:30pm 22.7 23.7 17.8 74 3.0 E 9 13 5 7 1017.3 1017.3 0.2
29/06:00pm 22.9 24.0 18.0 74 3.1 E 9 13 5 7 1017.3 1017.3 0.2
29/05:30pm 23.1 24.1 17.8 72 3.3 ESE 9 13 5 7 1016.9 1016.9 0.2
29/05:00pm 23.5 24.4 17.5 69 3.7 SE 9 13 5 7 1016.5 1016.5 0.2
29/04:30pm 24.2 25.2 17.7 67 4.1 ESE 9 13 5 7 1016.3 1016.3 0.2
29/04:00pm 24.5 25.4 17.5 65 4.4 ESE 9 17 5 9 1016.2 1016.2 0.2
29/03:30pm 24.3 24.7 18.2 68 3.8 E 13 19 7 10 1016.2 1016.2 0.2
29/03:00pm 24.5 24.3 17.7 66 4.2 E 15 20 8 11 1016.3 1016.3 0.2
29/02:30pm 24.5 23.7 18.0 67 4.1 ENE 19 24 10 13 1016.4 1016.4 0.2
29/02:00pm 24.5 24.0 17.7 66 4.2 E 17 22 9 12 1016.4 1016.4 0.2
29/01:30pm 24.8 25.1 18.0 66 4.3 E 13 20 7 11 1016.8 1016.8 0.2
29/01:00pm 25.3 25.6 18.0 64 4.6 E 13 20 7 11 1016.9 1016.9 0.2
29/12:30pm 24.3 24.1 16.8 63 4.6 ESE 13 19 7 10 1017.4 1017.4 0.2
29/12:00pm 25.2 25.5 17.1 60 5.0 ESE 11 17 6 9 1018.0 1018.0 0.2
29/11:30am 25.4 25.2 16.8 59 5.3 ESE 13 22 7 12 1018.1 1018.1 0.2
29/11:00am 24.9 24.8 16.9 61 4.9 ESE 13 20 7 11 1018.4 1018.4 0.2
29/10:30am 25.0 25.3 17.0 61 5.0 ESE 11 19 6 10 1018.9 1018.9 0.2
29/10:00am 24.6 25.4 18.1 67 4.1 SE 11 17 6 9 1019.2 1019.2 0.2
29/09:30am 23.4 25.0 18.3 73 3.2 S 7 13 4 7 1019.1 1019.1 0.0
29/09:00am 22.0 23.8 18.2 79 2.4 S 6 9 3 5 1018.9 1018.9 0.0
29/08:30am 20.7 22.3 19.2 91 0.9 S 9 11 5 6 1018.5 1018.5 0.0
29/08:00am 19.3 20.2 18.3 94 0.6 S 11 17 6 9 1018.3 1018.3 0.0
29/07:30am 18.2 19.6 17.7 97 0.3 S 7 11 4 6 1018.1 1018.1 0.0
29/07:00am 17.2 17.8 16.7 97 0.3 S 9 11 5 6 1017.8 1017.8 0.0
29/06:30am 17.2 18.1 16.7 97 0.3 S 7 11 4 6 1017.3 1017.3 0.0
29/06:00am 17.4 18.4 16.9 97 0.3 S 7 11 4 6 1016.9 1016.9 0.0
29/05:30am 17.6 18.3 17.0 96 0.4 S 9 11 5 6 1017.1 1017.1 0.0
29/05:00am 17.9 19.0 17.1 95 0.5 S 7 11 4 6 1016.6 1016.6 0.0
29/04:30am 18.0 19.2 17.4 96 0.4 SSW 7 9 4 5 1016.4 1016.4 0.0
29/04:00am 18.3 19.7 17.7 96 0.4 SSW 7 9 4 5 1016.5 1016.5 0.0
29/03:30am 18.4 19.8 17.8 96 0.4 SSW 7 9 4 5 1016.8 1016.8 0.0
29/03:00am 18.7 20.2 18.0 96 0.4 SSW 7 9 4 5 1016.9 1016.9 0.0
29/02:30am 18.7 19.8 18.0 96 0.4 SSW 9 11 5 6 1017.0 1017.0 0.0
29/02:00am 18.8 19.9 18.0 95 0.5 SSW 9 11 5 6 1017.0 1017.0 0.0
29/01:30am 18.9 20.3 17.9 94 0.6 SSW 7 9 4 5 1017.4 1017.4 0.0
29/01:00am 19.3 20.9 18.3 94 0.6 SSW 7 9 4 5 1017.6 1017.6 0.0
29/12:30am 19.5 21.1 18.2 92 0.8 SSW 7 9 4 5 1017.8 1017.8 0.0
29/12:00am 20.1 21.6 17.5 85 1.6 SSE 6 13 3 7 1017.8 1017.8 0.0
 
Date/Time
EST
Temp
°C
App
Temp
°C
Dew
Point
°C
Rel
Hum
%
Delta-T
°C
Wind Press
QNH
hPa
Press
MSL
hPa
Rain since
9am
mm
Dir  Spd
km/h
Gust
km/h
Spd
kts
Gust
kts
28/11:30pm 23.0 24.0 18.7 77 2.7 E 11 17 6 9 1017.9 1017.9 0.0
28/11:00pm 23.4 24.2 19.1 77 2.7 E 13 20 7 11 1018.0 1018.0 0.0
28/10:30pm 23.5 23.3 18.6 74 3.1 E 17 24 9 13 1018.0 1018.0 0.0
28/10:00pm 23.6 23.5 18.7 74 3.1 E 17 22 9 12 1018.2 1018.2 0.0
28/09:30pm 23.4 23.2 18.5 74 3.1 E 17 24 9 13 1017.9 1017.9 0.0
28/09:00pm 23.5 22.9 18.4 73 3.2 E 19 24 10 13 1017.7 1017.7 0.0
28/08:30pm 23.5 23.0 18.6 74 3.1 E 19 24 10 13 1017.5 1017.5 0.0
28/08:00pm 23.5 22.9 18.4 73 3.2 E 19 22 10 12 1017.2 1017.2 0.0
28/07:30pm 23.5 23.2 18.2 72 3.3 E 17 20 9 11 1016.9 1016.9 0.0
28/07:00pm 23.4 23.3 18.7 75 3.0 ENE 17 22 9 12 1016.5 1016.5 0.0
28/06:30pm 23.4 22.9 18.7 75 3.0 ENE 19 22 10 12 1016.2 1016.2 0.0
28/06:00pm 23.4 22.9 18.7 75 3.0 ENE 19 22 10 12 1015.9 1015.9 0.0
28/05:30pm 23.5 22.9 18.4 73 3.2 ENE 19 22 10 12 1015.5 1015.5 0.0
28/05:00pm 23.7 23.1 18.4 72 3.3 ENE 19 24 10 13 1015.2 1015.2 0.0
28/04:30pm 24.1 23.4 18.3 70 3.7 ENE 19 24 10 13 1015.0 1015.0 0.0
28/04:00pm 24.5 24.3 18.4 69 3.9 ENE 17 22 9 12 1015.1 1015.1 0.0
28/03:30pm 24.7 24.4 18.2 67 4.1 E 17 22 9 12 1015.0 1015.0 0.0
28/03:00pm 24.8 24.2 18.5 68 4.0 ENE 19 24 10 13 1015.2 1015.2 0.0
28/02:30pm 24.8 24.5 18.3 67 4.1 E 17 22 9 12 1015.3 1015.3 0.0
28/02:00pm 24.8 24.9 18.3 67 4.1 E 15 20 8 11 1015.6 1015.6 0.0
28/01:30pm 24.8 24.9 17.5 64 4.6 E 13 20 7 11 1015.8 1015.8 0.0
28/01:00pm 25.9 26.7 18.1 62 4.9 ESE 11 19 6 10 1016.0 1016.0 0.0
28/12:30pm 26.2 27.0 18.1 61 5.1 ESE 11 19 6 10 1016.6 1016.6 0.0
28/12:00pm 25.6 25.9 17.8 62 4.9 ESE 13 20 7 11 1016.9 1016.9 0.0
28/11:30am 25.2 25.9 18.9 68 4.0 ESE 13 20 7 11 1017.1 1017.1 0.0
28/11:00am 24.8 25.1 17.8 65 4.4 ESE 13 20 7 11 1017.4 1017.4 0.0
28/10:30am 24.5 25.2 18.0 67 4.1 SE 11 17 6 9 1017.7 1017.7 0.0
28/10:00am 24.3 24.9 17.8 67 4.1 SE 11 19 6 10 1017.8 1017.8 0.0
28/09:30am 23.7 24.8 17.9 70 3.6 SE 9 15 5 8 1017.8 1017.8 0.0
28/09:00am 22.1 23.2 17.9 77 2.6 S 9 13 5 7 1017.6 1017.6 0.0
28/08:30am 20.8 22.1 18.4 86 1.5 S 9 17 5 9 1017.5 1017.5 0.0
28/08:00am 19.4 20.5 17.9 91 0.9 SSW 9 15 5 8 1017.3 1017.3 0.0
28/07:30am 18.3 19.2 17.5 95 0.5 S 9 11 5 6 1017.1 1017.1 0.0
28/07:00am 17.5 18.5 16.9 96 0.4 S 7 9 4 5 1016.7 1016.7 0.0
28/06:30am 17.3 17.9 16.7 96 0.4 S 9 11 5 6 1016.4 1016.4 0.0
28/06:00am 17.7 18.4 17.1 96 0.4 S 9 11 5 6 1016.4 1016.4 0.0
28/05:30am 17.9 18.7 17.3 96 0.4 S 9 13 5 7 1016.3 1016.3 0.0
28/05:00am 18.1 19.0 17.5 96 0.4 S 9 13 5 7 1016.3 1016.3 0.0
28/04:30am 18.2 19.1 17.6 96 0.4 S 9 13 5 7 1016.3 1016.3 0.0
28/04:00am 18.4 19.4 17.8 96 0.4 SSE 9 11 5 6 1016.4 1016.4 0.0
28/03:30am 18.5 19.6 17.9 96 0.4 SSE 9 13 5 7 1016.5 1016.5 0.0
28/03:00am 18.6 20.0 17.8 95 0.5 SSE 7 13 4 7 1016.8 1016.8 0.0
28/02:30am 18.9 20.3 17.7 93 0.7 SSE 7 9 4 5 1017.0 1017.0 0.0
28/02:00am 19.7 21.3 18.2 91 0.9 SSE 7 13 4 7 1017.3 1017.3 0.0
28/01:30am 20.5 21.8 18.4 88 1.3 SE 9 15 5 8 1017.6 1017.6 0.0
28/01:00am 22.2 22.9 18.8 81 2.1 SE 13 20 7 11 1017.8 1017.8 0.0
28/12:30am 22.3 23.0 18.9 81 2.1 ESE 13 20 7 11 1017.8 1017.8 0.0
28/12:00am 22.5 22.9 19.1 81 2.2 ESE 15 24 8 13 1017.8 1017.8 0.0
 
Date/Time
EST
Temp
°C
App
Temp
°C
Dew
Point
°C
Rel
Hum
%
Delta-T
°C
Wind Press
QNH
hPa
Press
MSL
hPa
Rain since
9am
mm
Dir  Spd
km/h
Gust
km/h
Spd
kts
Gust
kts
27/11:30pm 22.7 23.1 19.1 80 2.3 ESE 15 22 8 12 1018.0 1018.0 0.0
27/11:00pm 23.0 23.8 19.0 78 2.5 ESE 13 20 7 11 1018.1 1018.1 0.0
27/10:30pm 23.2 23.1 18.7 76 2.8 ESE 17 24 9 13 1018.0 1018.0 0.0
27/10:00pm 23.2 22.9 18.3 74 3.1 E 17 24 9 13 1017.9 1017.9 0.0
27/09:30pm 23.5 23.3 18.4 73 3.2 E 17 24 9 13 1017.9 1017.9 0.0
27/09:00pm 23.1 22.9 18.4 75 2.9 E 17 24 9 13 1017.8 1017.8 0.0
27/08:30pm 23.2 23.1 18.7 76 2.8 E 17 26 9 14 1017.7 1017.7 0.0
27/08:00pm 23.0 22.5 18.7 77 2.7 E 19 26 10 14 1017.6 1017.6 0.0
27/07:30pm 22.9 22.7 18.4 76 2.8 E 17 24 9 13 1017.2 1017.2 0.0
27/07:00pm 23.1 23.0 18.8 77 2.7 E 17 24 9 13 1016.9 1016.9 0.0
27/06:30pm 23.3 22.7 18.4 74 3.1 E 19 26 10 14 1016.5 1016.5 0.0
27/06:00pm 23.5 23.0 18.6 74 3.1 E 19 24 10 13 1016.2 1016.2 0.0
27/05:30pm 23.4 22.7 18.3 73 3.2 E 19 24 10 13 1015.9 1015.9 0.0
27/05:00pm 23.7 23.5 18.4 72 3.3 E 17 24 9 13 1015.8 1015.8 0.0
27/04:30pm 24.0 23.3 18.2 70 3.6 E 19 28 10 15 1015.6 1015.6 0.0
27/04:00pm 24.3 23.7 18.5 70 3.7 E 19 28 10 15 1015.5 1015.5 0.0
27/03:30pm 24.2 23.4 17.9 68 3.9 E 19 26 10 14 1015.5 1015.5 0.0
27/03:00pm 24.1 23.8 18.3 70 3.6 E 17 24 9 13 1015.7 1015.7 0.0
27/02:30pm 24.7 23.9 17.9 66 4.3 E 19 28 10 15 1015.7 1015.7 0.0
27/02:00pm 25.0 24.3 18.2 66 4.3 E 19 28 10 15 1015.6 1015.6 0.0

Other Formats:

Comma delimited format used in spreadsheet applications
http://www.bom.gov.au/fwo/IDQ60801/IDQ60801.95296.axf

JavaScript Object Notation format (JSON) in row-major order
http://www.bom.gov.au/fwo/IDQ60801/IDQ60801.95296.json